sensor_id;sensor_type;location;lat;lon;timestamp;P1;durP1;ratioP1;P2;durP2;ratioP2
35424;SDS011;21537;48.226;16.400;2022-08-19T00:01:35;10.05;;;4.05;;
35424;SDS011;21537;48.226;16.400;2022-08-19T00:04:04;11.10;;;4.22;;
35424;SDS011;21537;48.226;16.400;2022-08-19T00:06:33;17.42;;;4.10;;
35424;SDS011;21537;48.226;16.400;2022-08-19T00:09:00;9.82;;;3.80;;
35424;SDS011;21537;48.226;16.400;2022-08-19T00:11:28;12.95;;;3.72;;
35424;SDS011;21537;48.226;16.400;2022-08-19T00:13:55;14.55;;;4.35;;
35424;SDS011;21537;48.226;16.400;2022-08-19T00:16:22;12.73;;;4.43;;
35424;SDS011;21537;48.226;16.400;2022-08-19T00:18:49;14.85;;;4.07;;
35424;SDS011;21537;48.226;16.400;2022-08-19T00:21:15;12.57;;;4.10;;
35424;SDS011;21537;48.226;16.400;2022-08-19T00:23:41;13.13;;;3.95;;
35424;SDS011;21537;48.226;16.400;2022-08-19T00:26:08;9.57;;;3.85;;
35424;SDS011;21537;48.226;16.400;2022-08-19T00:28:35;9.52;;;4.13;;
35424;SDS011;21537;48.226;16.400;2022-08-19T00:31:03;13.32;;;4.03;;
35424;SDS011;21537;48.226;16.400;2022-08-19T00:33:30;12.77;;;4.15;;
35424;SDS011;21537;48.226;16.400;2022-08-19T00:35:58;13.10;;;4.50;;
35424;SDS011;21537;48.226;16.400;2022-08-19T00:38:29;10.70;;;4.57;;
35424;SDS011;21537;48.226;16.400;2022-08-19T00:40:55;14.43;;;3.63;;
35424;SDS011;21537;48.226;16.400;2022-08-19T00:43:23;13.10;;;3.72;;
35424;SDS011;21537;48.226;16.400;2022-08-19T00:45:51;12.40;;;4.78;;
35424;SDS011;21537;48.226;16.400;2022-08-19T00:48:18;15.02;;;4.63;;
35424;SDS011;21537;48.226;16.400;2022-08-19T00:50:45;11.18;;;4.13;;
35424;SDS011;21537;48.226;16.400;2022-08-19T00:53:13;10.00;;;4.20;;
35424;SDS011;21537;48.226;16.400;2022-08-19T00:55:45;11.55;;;4.03;;
35424;SDS011;21537;48.226;16.400;2022-08-19T00:58:14;10.43;;;3.58;;
35424;SDS011;21537;48.226;16.400;2022-08-19T01:00:43;18.02;;;4.75;;
35424;SDS011;21537;48.226;16.400;2022-08-19T01:03:10;11.73;;;4.55;;
35424;SDS011;21537;48.226;16.400;2022-08-19T01:05:39;9.30;;;4.43;;
35424;SDS011;21537;48.226;16.400;2022-08-19T01:08:07;9.75;;;3.63;;
35424;SDS011;21537;48.226;16.400;2022-08-19T01:10:37;10.82;;;4.40;;
35424;SDS011;21537;48.226;16.400;2022-08-19T01:13:07;17.90;;;4.65;;
35424;SDS011;21537;48.226;16.400;2022-08-19T01:15:39;15.15;;;4.32;;
35424;SDS011;21537;48.226;16.400;2022-08-19T01:18:12;11.15;;;4.82;;
35424;SDS011;21537;48.226;16.400;2022-08-19T01:20:39;14.65;;;4.55;;
35424;SDS011;21537;48.226;16.400;2022-08-19T01:23:07;10.90;;;4.65;;
35424;SDS011;21537;48.226;16.400;2022-08-19T01:25:44;7.97;;;3.70;;
35424;SDS011;21537;48.226;16.400;2022-08-19T01:28:22;14.95;;;4.38;;
35424;SDS011;21537;48.226;16.400;2022-08-19T01:30:53;11.80;;;3.75;;
35424;SDS011;21537;48.226;16.400;2022-08-19T01:33:20;17.92;;;3.92;;
35424;SDS011;21537;48.226;16.400;2022-08-19T01:35:46;14.05;;;4.10;;
35424;SDS011;21537;48.226;16.400;2022-08-19T01:38:19;11.75;;;3.50;;
35424;SDS011;21537;48.226;16.400;2022-08-19T01:40:47;13.20;;;4.15;;
35424;SDS011;21537;48.226;16.400;2022-08-19T01:43:13;7.63;;;3.53;;
35424;SDS011;21537;48.226;16.400;2022-08-19T01:45:40;13.15;;;3.45;;
35424;SDS011;21537;48.226;16.400;2022-08-19T01:48:06;11.02;;;3.90;;
35424;SDS011;21537;48.226;16.400;2022-08-19T01:50:33;8.43;;;3.50;;
35424;SDS011;21537;48.226;16.400;2022-08-19T01:53:00;10.13;;;3.33;;
35424;SDS011;21537;48.226;16.400;2022-08-19T01:55:27;6.63;;;3.40;;
35424;SDS011;21537;48.226;16.400;2022-08-19T01:57:54;9.57;;;3.88;;
35424;SDS011;21537;48.226;16.400;2022-08-19T02:00:25;10.40;;;3.40;;
35424;SDS011;21537;48.226;16.400;2022-08-19T02:02:53;11.07;;;3.80;;
35424;SDS011;21537;48.226;16.400;2022-08-19T02:05:19;16.38;;;4.35;;
35424;SDS011;21537;48.226;16.400;2022-08-19T02:07:46;14.40;;;3.67;;
35424;SDS011;21537;48.226;16.400;2022-08-19T02:10:18;14.93;;;4.18;;
35424;SDS011;21537;48.226;16.400;2022-08-19T02:12:46;11.50;;;4.30;;
35424;SDS011;21537;48.226;16.400;2022-08-19T02:15:12;9.10;;;3.85;;
35424;SDS011;21537;48.226;16.400;2022-08-19T02:17:38;11.20;;;3.70;;
35424;SDS011;21537;48.226;16.400;2022-08-19T02:20:06;8.77;;;3.63;;
35424;SDS011;21537;48.226;16.400;2022-08-19T02:22:33;13.15;;;4.03;;
35424;SDS011;21537;48.226;16.400;2022-08-19T02:24:59;11.23;;;3.60;;
35424;SDS011;21537;48.226;16.400;2022-08-19T02:27:25;12.35;;;4.00;;
35424;SDS011;21537;48.226;16.400;2022-08-19T02:29:51;9.10;;;3.63;;
35424;SDS011;21537;48.226;16.400;2022-08-19T02:32:18;12.15;;;3.70;;
35424;SDS011;21537;48.226;16.400;2022-08-19T02:34:45;8.65;;;4.20;;
35424;SDS011;21537;48.226;16.400;2022-08-19T02:37:11;9.73;;;3.72;;
35424;SDS011;21537;48.226;16.400;2022-08-19T02:39:56;12.52;;;4.38;;
35424;SDS011;21537;48.226;16.400;2022-08-19T02:42:23;13.25;;;4.30;;
35424;SDS011;21537;48.226;16.400;2022-08-19T02:44:49;13.93;;;3.75;;
35424;SDS011;21537;48.226;16.400;2022-08-19T02:47:15;18.13;;;4.10;;
35424;SDS011;21537;48.226;16.400;2022-08-19T02:49:44;18.13;;;4.40;;
35424;SDS011;21537;48.226;16.400;2022-08-19T02:52:10;6.88;;;3.38;;
35424;SDS011;21537;48.226;16.400;2022-08-19T02:54:37;15.20;;;4.95;;
35424;SDS011;21537;48.226;16.400;2022-08-19T02:57:03;8.93;;;4.38;;
35424;SDS011;21537;48.226;16.400;2022-08-19T02:59:32;11.90;;;4.28;;
35424;SDS011;21537;48.226;16.400;2022-08-19T03:01:57;13.02;;;4.10;;
35424;SDS011;21537;48.226;16.400;2022-08-19T03:04:23;11.88;;;3.83;;
35424;SDS011;21537;48.226;16.400;2022-08-19T03:06:49;12.77;;;4.93;;
35424;SDS011;21537;48.226;16.400;2022-08-19T03:09:17;9.95;;;3.88;;
35424;SDS011;21537;48.226;16.400;2022-08-19T03:11:44;11.60;;;4.18;;
35424;SDS011;21537;48.226;16.400;2022-08-19T03:14:10;10.23;;;4.00;;
35424;SDS011;21537;48.226;16.400;2022-08-19T03:16:42;14.10;;;4.68;;
35424;SDS011;21537;48.226;16.400;2022-08-19T03:19:11;10.07;;;4.15;;
35424;SDS011;21537;48.226;16.400;2022-08-19T03:21:37;16.20;;;3.90;;
35424;SDS011;21537;48.226;16.400;2022-08-19T03:24:06;14.55;;;3.90;;
35424;SDS011;21537;48.226;16.400;2022-08-19T03:26:33;9.57;;;3.83;;
35424;SDS011;21537;48.226;16.400;2022-08-19T03:29:03;12.45;;;4.25;;
35424;SDS011;21537;48.226;16.400;2022-08-19T03:31:30;15.20;;;4.07;;
35424;SDS011;21537;48.226;16.400;2022-08-19T03:33:56;11.90;;;4.03;;
35424;SDS011;21537;48.226;16.400;2022-08-19T03:36:23;11.43;;;4.00;;
35424;SDS011;21537;48.226;16.400;2022-08-19T03:38:51;12.27;;;4.28;;
35424;SDS011;21537;48.226;16.400;2022-08-19T03:41:27;12.93;;;4.30;;
35424;SDS011;21537;48.226;16.400;2022-08-19T03:43:55;13.32;;;4.35;;
35424;SDS011;21537;48.226;16.400;2022-08-19T03:46:26;18.02;;;4.38;;
35424;SDS011;21537;48.226;16.400;2022-08-19T03:48:54;13.73;;;4.55;;
35424;SDS011;21537;48.226;16.400;2022-08-19T03:54:02;14.77;;;4.55;;
35424;SDS011;21537;48.226;16.400;2022-08-19T03:56:30;14.45;;;4.88;;
35424;SDS011;21537;48.226;16.400;2022-08-19T03:58:59;10.77;;;4.90;;
35424;SDS011;21537;48.226;16.400;2022-08-19T04:01:26;18.98;;;5.10;;
35424;SDS011;21537;48.226;16.400;2022-08-19T04:03:53;15.70;;;5.03;;
35424;SDS011;21537;48.226;16.400;2022-08-19T04:06:22;14.35;;;5.18;;
35424;SDS011;21537;48.226;16.400;2022-08-19T04:08:50;13.02;;;4.90;;
35424;SDS011;21537;48.226;16.400;2022-08-19T04:11:19;13.38;;;4.78;;
35424;SDS011;21537;48.226;16.400;2022-08-19T04:13:49;12.18;;;4.45;;
35424;SDS011;21537;48.226;16.400;2022-08-19T04:16:16;19.02;;;5.25;;
35424;SDS011;21537;48.226;16.400;2022-08-19T04:18:46;14.05;;;4.78;;
35424;SDS011;21537;48.226;16.400;2022-08-19T04:21:16;16.17;;;4.68;;
35424;SDS011;21537;48.226;16.400;2022-08-19T04:23:45;13.60;;;4.85;;
35424;SDS011;21537;48.226;16.400;2022-08-19T04:26:18;14.68;;;5.40;;
35424;SDS011;21537;48.226;16.400;2022-08-19T04:28:47;10.50;;;4.43;;
35424;SDS011;21537;48.226;16.400;2022-08-19T04:31:14;13.05;;;4.82;;
35424;SDS011;21537;48.226;16.400;2022-08-19T04:33:42;19.95;;;4.75;;
35424;SDS011;21537;48.226;16.400;2022-08-19T04:36:08;15.77;;;5.10;;
35424;SDS011;21537;48.226;16.400;2022-08-19T04:38:41;16.75;;;5.30;;
35424;SDS011;21537;48.226;16.400;2022-08-19T04:41:07;13.27;;;4.53;;
35424;SDS011;21537;48.226;16.400;2022-08-19T04:43:51;15.97;;;5.27;;
35424;SDS011;21537;48.226;16.400;2022-08-19T04:46:17;15.60;;;4.78;;
35424;SDS011;21537;48.226;16.400;2022-08-19T04:48:45;16.33;;;4.80;;
35424;SDS011;21537;48.226;16.400;2022-08-19T04:51:11;20.65;;;4.80;;
35424;SDS011;21537;48.226;16.400;2022-08-19T04:53:39;11.88;;;4.85;;
35424;SDS011;21537;48.226;16.400;2022-08-19T04:56:12;12.57;;;5.07;;
35424;SDS011;21537;48.226;16.400;2022-08-19T04:58:41;13.32;;;4.97;;
35424;SDS011;21537;48.226;16.400;2022-08-19T05:01:08;13.70;;;5.10;;
35424;SDS011;21537;48.226;16.400;2022-08-19T05:03:45;18.67;;;4.80;;
35424;SDS011;21537;48.226;16.400;2022-08-19T05:06:11;10.18;;;5.40;;
35424;SDS011;21537;48.226;16.400;2022-08-19T05:08:40;15.02;;;4.88;;
35424;SDS011;21537;48.226;16.400;2022-08-19T05:11:30;20.58;;;5.70;;
35424;SDS011;21537;48.226;16.400;2022-08-19T05:13:55;15.43;;;5.05;;
35424;SDS011;21537;48.226;16.400;2022-08-19T05:16:22;19.65;;;5.85;;
35424;SDS011;21537;48.226;16.400;2022-08-19T05:18:49;23.33;;;5.13;;
35424;SDS011;21537;48.226;16.400;2022-08-19T05:21:33;17.08;;;6.13;;
35424;SDS011;21537;48.226;16.400;2022-08-19T05:26:46;17.23;;;6.93;;
35424;SDS011;21537;48.226;16.400;2022-08-19T05:29:14;13.40;;;6.75;;
35424;SDS011;21537;48.226;16.400;2022-08-19T05:31:41;19.50;;;8.38;;
35424;SDS011;21537;48.226;16.400;2022-08-19T05:34:07;16.30;;;8.25;;
35424;SDS011;21537;48.226;16.400;2022-08-19T05:36:38;17.23;;;8.68;;
35424;SDS011;21537;48.226;16.400;2022-08-19T05:39:07;22.50;;;9.00;;
35424;SDS011;21537;48.226;16.400;2022-08-19T05:41:34;14.15;;;8.35;;
35424;SDS011;21537;48.226;16.400;2022-08-19T05:44:04;16.58;;;8.77;;
35424;SDS011;21537;48.226;16.400;2022-08-19T05:46:38;15.07;;;9.32;;
35424;SDS011;21537;48.226;16.400;2022-08-19T05:49:04;16.33;;;9.07;;
35424;SDS011;21537;48.226;16.400;2022-08-19T05:51:31;14.05;;;9.25;;
35424;SDS011;21537;48.226;16.400;2022-08-19T06:20:16;12.00;;;8.30;;
35424;SDS011;21537;48.226;16.400;2022-08-19T06:22:46;18.25;;;8.40;;
35424;SDS011;21537;48.226;16.400;2022-08-19T06:25:17;17.20;;;8.20;;
35424;SDS011;21537;48.226;16.400;2022-08-19T06:27:43;11.65;;;7.82;;
35424;SDS011;21537;48.226;16.400;2022-08-19T06:30:10;17.95;;;8.20;;
35424;SDS011;21537;48.226;16.400;2022-08-19T06:32:39;12.85;;;8.20;;
35424;SDS011;21537;48.226;16.400;2022-08-19T06:35:06;15.63;;;8.70;;
35424;SDS011;21537;48.226;16.400;2022-08-19T06:48:11;11.18;;;8.13;;
35424;SDS011;21537;48.226;16.400;2022-08-19T06:58:54;15.07;;;7.60;;
35424;SDS011;21537;48.226;16.400;2022-08-19T07:01:23;14.90;;;7.68;;
35424;SDS011;21537;48.226;16.400;2022-08-19T07:03:52;17.52;;;7.32;;
35424;SDS011;21537;48.226;16.400;2022-08-19T07:06:20;12.95;;;7.40;;
35424;SDS011;21537;48.226;16.400;2022-08-19T07:09:05;13.02;;;7.45;;
35424;SDS011;21537;48.226;16.400;2022-08-19T07:11:33;10.50;;;7.13;;
35424;SDS011;21537;48.226;16.400;2022-08-19T07:14:00;10.95;;;6.75;;
35424;SDS011;21537;48.226;16.400;2022-08-19T07:16:27;15.40;;;6.78;;
35424;SDS011;21537;48.226;16.400;2022-08-19T07:18:57;10.25;;;6.72;;
35424;SDS011;21537;48.226;16.400;2022-08-19T07:21:27;10.40;;;6.05;;
35424;SDS011;21537;48.226;16.400;2022-08-19T07:23:54;12.35;;;5.95;;
35424;SDS011;21537;48.226;16.400;2022-08-19T07:28:53;9.00;;;6.00;;
35424;SDS011;21537;48.226;16.400;2022-08-19T07:31:20;10.55;;;6.30;;
35424;SDS011;21537;48.226;16.400;2022-08-19T07:33:48;14.23;;;6.00;;
35424;SDS011;21537;48.226;16.400;2022-08-19T07:36:17;8.82;;;5.85;;
35424;SDS011;21537;48.226;16.400;2022-08-19T07:38:45;9.85;;;6.20;;
35424;SDS011;21537;48.226;16.400;2022-08-19T07:41:15;17.02;;;6.65;;
35424;SDS011;21537;48.226;16.400;2022-08-19T07:43:46;20.77;;;8.13;;
35424;SDS011;21537;48.226;16.400;2022-08-19T07:46:15;16.83;;;8.60;;
35424;SDS011;21537;48.226;16.400;2022-08-19T07:48:42;8.52;;;5.47;;
35424;SDS011;21537;48.226;16.400;2022-08-19T07:51:12;17.58;;;6.63;;
35424;SDS011;21537;48.226;16.400;2022-08-19T07:53:39;10.50;;;6.35;;
35424;SDS011;21537;48.226;16.400;2022-08-19T07:56:05;17.95;;;6.13;;
35424;SDS011;21537;48.226;16.400;2022-08-19T07:58:33;15.40;;;6.15;;
35424;SDS011;21537;48.226;16.400;2022-08-19T08:01:00;12.20;;;6.10;;
35424;SDS011;21537;48.226;16.400;2022-08-19T08:03:27;11.65;;;5.20;;
35424;SDS011;21537;48.226;16.400;2022-08-19T08:06:13;10.75;;;5.50;;
35424;SDS011;21537;48.226;16.400;2022-08-19T08:08:59;10.82;;;4.95;;
35424;SDS011;21537;48.226;16.400;2022-08-19T08:11:41;9.55;;;4.78;;
35424;SDS011;21537;48.226;16.400;2022-08-19T08:14:16;10.15;;;4.97;;
35424;SDS011;21537;48.226;16.400;2022-08-19T08:17:21;16.75;;;5.47;;
35424;SDS011;21537;48.226;16.400;2022-08-19T08:19:49;10.23;;;5.22;;
35424;SDS011;21537;48.226;16.400;2022-08-19T08:22:17;12.65;;;4.63;;
35424;SDS011;21537;48.226;16.400;2022-08-19T08:25:05;13.95;;;5.03;;
35424;SDS011;21537;48.226;16.400;2022-08-19T08:27:36;10.10;;;4.80;;
35424;SDS011;21537;48.226;16.400;2022-08-19T08:30:06;10.52;;;5.00;;
35424;SDS011;21537;48.226;16.400;2022-08-19T08:32:34;7.80;;;5.05;;
35424;SDS011;21537;48.226;16.400;2022-08-19T08:35:03;12.98;;;5.45;;
35424;SDS011;21537;48.226;16.400;2022-08-19T08:37:30;9.88;;;5.05;;
35424;SDS011;21537;48.226;16.400;2022-08-19T08:39:56;11.00;;;5.07;;
35424;SDS011;21537;48.226;16.400;2022-08-19T08:42:29;8.73;;;4.72;;
35424;SDS011;21537;48.226;16.400;2022-08-19T08:45:19;11.98;;;5.28;;
35424;SDS011;21537;48.226;16.400;2022-08-19T08:47:47;10.98;;;4.85;;
35424;SDS011;21537;48.226;16.400;2022-08-19T08:50:31;11.02;;;5.28;;
35424;SDS011;21537;48.226;16.400;2022-08-19T08:53:07;15.30;;;4.60;;
35424;SDS011;21537;48.226;16.400;2022-08-19T08:55:33;9.15;;;4.60;;
35424;SDS011;21537;48.226;16.400;2022-08-19T08:58:03;12.60;;;4.43;;
35424;SDS011;21537;48.226;16.400;2022-08-19T09:00:33;6.05;;;4.07;;
35424;SDS011;21537;48.226;16.400;2022-08-19T09:03:06;11.23;;;4.47;;
35424;SDS011;21537;48.226;16.400;2022-08-19T09:05:45;12.35;;;4.53;;
35424;SDS011;21537;48.226;16.400;2022-08-19T09:08:38;12.27;;;4.75;;
35424;SDS011;21537;48.226;16.400;2022-08-19T09:11:14;9.18;;;4.40;;
35424;SDS011;21537;48.226;16.400;2022-08-19T09:14:07;7.45;;;5.07;;
35424;SDS011;21537;48.226;16.400;2022-08-19T09:16:39;13.27;;;5.50;;
35424;SDS011;21537;48.226;16.400;2022-08-19T09:19:06;10.15;;;5.20;;
35424;SDS011;21537;48.226;16.400;2022-08-19T09:21:33;14.52;;;5.22;;
35424;SDS011;21537;48.226;16.400;2022-08-19T09:24:03;11.38;;;4.97;;
35424;SDS011;21537;48.226;16.400;2022-08-19T09:26:30;12.27;;;4.95;;
35424;SDS011;21537;48.226;16.400;2022-08-19T09:28:59;9.80;;;5.10;;
35424;SDS011;21537;48.226;16.400;2022-08-19T09:31:27;9.60;;;5.10;;
35424;SDS011;21537;48.226;16.400;2022-08-19T09:33:55;13.70;;;5.75;;
35424;SDS011;21537;48.226;16.400;2022-08-19T09:36:24;12.73;;;5.03;;
35424;SDS011;21537;48.226;16.400;2022-08-19T09:38:54;7.93;;;4.38;;
35424;SDS011;21537;48.226;16.400;2022-08-19T09:41:21;13.35;;;4.55;;
35424;SDS011;21537;48.226;16.400;2022-08-19T09:43:50;11.80;;;4.57;;
35424;SDS011;21537;48.226;16.400;2022-08-19T09:46:19;13.00;;;4.72;;
35424;SDS011;21537;48.226;16.400;2022-08-19T09:48:48;11.88;;;5.30;;
35424;SDS011;21537;48.226;16.400;2022-08-19T09:51:17;14.40;;;4.70;;
35424;SDS011;21537;48.226;16.400;2022-08-19T09:53:45;9.30;;;4.15;;
35424;SDS011;21537;48.226;16.400;2022-08-19T09:56:15;7.30;;;3.90;;
35424;SDS011;21537;48.226;16.400;2022-08-19T09:58:42;8.82;;;4.20;;
35424;SDS011;21537;48.226;16.400;2022-08-19T10:01:08;7.60;;;4.05;;
35424;SDS011;21537;48.226;16.400;2022-08-19T10:03:40;14.10;;;4.25;;
35424;SDS011;21537;48.226;16.400;2022-08-19T10:06:05;12.00;;;4.45;;
35424;SDS011;21537;48.226;16.400;2022-08-19T10:08:34;7.72;;;4.40;;
35424;SDS011;21537;48.226;16.400;2022-08-19T10:11:01;10.40;;;4.63;;
35424;SDS011;21537;48.226;16.400;2022-08-19T10:13:29;10.18;;;4.40;;
35424;SDS011;21537;48.226;16.400;2022-08-19T10:16:01;13.95;;;4.65;;
35424;SDS011;21537;48.226;16.400;2022-08-19T10:18:33;12.57;;;4.10;;
35424;SDS011;21537;48.226;16.400;2022-08-19T10:21:04;11.05;;;4.47;;
35424;SDS011;21537;48.226;16.400;2022-08-19T10:23:34;10.02;;;4.40;;
35424;SDS011;21537;48.226;16.400;2022-08-19T10:26:04;12.38;;;4.20;;
35424;SDS011;21537;48.226;16.400;2022-08-19T10:28:33;10.20;;;4.82;;
35424;SDS011;21537;48.226;16.400;2022-08-19T10:31:06;19.15;;;4.53;;
35424;SDS011;21537;48.226;16.400;2022-08-19T10:33:35;8.77;;;4.40;;
35424;SDS011;21537;48.226;16.400;2022-08-19T10:36:06;13.88;;;5.05;;
35424;SDS011;21537;48.226;16.400;2022-08-19T10:38:35;11.55;;;5.20;;
35424;SDS011;21537;48.226;16.400;2022-08-19T10:41:11;10.35;;;5.03;;
35424;SDS011;21537;48.226;16.400;2022-08-19T10:43:39;8.77;;;5.05;;
35424;SDS011;21537;48.226;16.400;2022-08-19T10:46:09;15.80;;;5.57;;
35424;SDS011;21537;48.226;16.400;2022-08-19T10:48:38;14.70;;;5.00;;
35424;SDS011;21537;48.226;16.400;2022-08-19T10:51:05;15.15;;;5.40;;
35424;SDS011;21537;48.226;16.400;2022-08-19T10:53:53;12.00;;;5.63;;
35424;SDS011;21537;48.226;16.400;2022-08-19T10:56:20;12.13;;;6.20;;
35424;SDS011;21537;48.226;16.400;2022-08-19T11:01:31;16.27;;;5.50;;
35424;SDS011;21537;48.226;16.400;2022-08-19T11:04:02;16.40;;;7.78;;
35424;SDS011;21537;48.226;16.400;2022-08-19T11:06:32;17.40;;;5.82;;
35424;SDS011;21537;48.226;16.400;2022-08-19T11:08:58;12.15;;;5.57;;
35424;SDS011;21537;48.226;16.400;2022-08-19T11:11:25;22.02;;;6.82;;
35424;SDS011;21537;48.226;16.400;2022-08-19T11:13:53;21.38;;;6.63;;
35424;SDS011;21537;48.226;16.400;2022-08-19T11:16:22;19.80;;;5.85;;
35424;SDS011;21537;48.226;16.400;2022-08-19T11:18:51;20.02;;;7.05;;
35424;SDS011;21537;48.226;16.400;2022-08-19T11:21:25;12.10;;;6.20;;
35424;SDS011;21537;48.226;16.400;2022-08-19T11:23:58;16.02;;;7.15;;
35424;SDS011;21537;48.226;16.400;2022-08-19T11:26:26;16.88;;;6.55;;
35424;SDS011;21537;48.226;16.400;2022-08-19T11:28:52;25.38;;;6.78;;
35424;SDS011;21537;48.226;16.400;2022-08-19T11:31:21;21.67;;;7.97;;
35424;SDS011;21537;48.226;16.400;2022-08-19T11:33:49;19.60;;;7.22;;
35424;SDS011;21537;48.226;16.400;2022-08-19T11:36:19;23.90;;;7.80;;
35424;SDS011;21537;48.226;16.400;2022-08-19T11:38:47;20.50;;;6.03;;
35424;SDS011;21537;48.226;16.400;2022-08-19T11:41:14;20.75;;;6.28;;
35424;SDS011;21537;48.226;16.400;2022-08-19T11:43:42;21.05;;;7.05;;
35424;SDS011;21537;48.226;16.400;2022-08-19T11:46:09;14.38;;;4.80;;
35424;SDS011;21537;48.226;16.400;2022-08-19T11:48:37;27.42;;;5.28;;
35424;SDS011;21537;48.226;16.400;2022-08-19T11:51:04;21.88;;;5.05;;
35424;SDS011;21537;48.226;16.400;2022-08-19T11:53:33;22.83;;;5.75;;
35424;SDS011;21537;48.226;16.400;2022-08-19T11:56:00;20.33;;;4.35;;
35424;SDS011;21537;48.226;16.400;2022-08-19T11:58:27;20.13;;;5.03;;
35424;SDS011;21537;48.226;16.400;2022-08-19T12:00:54;25.58;;;5.57;;
35424;SDS011;21537;48.226;16.400;2022-08-19T12:03:20;17.73;;;4.82;;
35424;SDS011;21537;48.226;16.400;2022-08-19T12:05:46;24.23;;;5.75;;
35424;SDS011;21537;48.226;16.400;2022-08-19T12:08:12;23.10;;;5.03;;
35424;SDS011;21537;48.226;16.400;2022-08-19T12:10:39;18.85;;;4.88;;
35424;SDS011;21537;48.226;16.400;2022-08-19T12:13:07;24.65;;;5.18;;
35424;SDS011;21537;48.226;16.400;2022-08-19T12:15:39;14.27;;;4.95;;
35424;SDS011;21537;48.226;16.400;2022-08-19T12:18:06;14.57;;;4.95;;
35424;SDS011;21537;48.226;16.400;2022-08-19T12:20:34;20.63;;;5.35;;
35424;SDS011;21537;48.226;16.400;2022-08-19T12:23:02;18.33;;;5.13;;
35424;SDS011;21537;48.226;16.400;2022-08-19T12:25:29;23.65;;;5.70;;
35424;SDS011;21537;48.226;16.400;2022-08-19T12:27:56;17.90;;;5.07;;
35424;SDS011;21537;48.226;16.400;2022-08-19T12:30:22;29.33;;;6.72;;
35424;SDS011;21537;48.226;16.400;2022-08-19T12:32:48;19.92;;;6.10;;
35424;SDS011;21537;48.226;16.400;2022-08-19T12:35:16;15.52;;;5.72;;
35424;SDS011;21537;48.226;16.400;2022-08-19T12:37:45;19.35;;;5.20;;
35424;SDS011;21537;48.226;16.400;2022-08-19T12:40:12;18.85;;;4.97;;
35424;SDS011;21537;48.226;16.400;2022-08-19T12:42:38;15.85;;;4.88;;
35424;SDS011;21537;48.226;16.400;2022-08-19T12:45:11;13.18;;;5.07;;
35424;SDS011;21537;48.226;16.400;2022-08-19T12:47:39;18.80;;;6.32;;
35424;SDS011;21537;48.226;16.400;2022-08-19T12:50:05;15.95;;;6.60;;
35424;SDS011;21537;48.226;16.400;2022-08-19T12:52:37;18.35;;;8.00;;
35424;SDS011;21537;48.226;16.400;2022-08-19T12:55:03;17.08;;;6.15;;
35424;SDS011;21537;48.226;16.400;2022-08-19T12:57:31;19.60;;;6.20;;
35424;SDS011;21537;48.226;16.400;2022-08-19T13:00:03;16.77;;;5.75;;
35424;SDS011;21537;48.226;16.400;2022-08-19T13:02:39;19.80;;;4.60;;
35424;SDS011;21537;48.226;16.400;2022-08-19T13:05:07;14.10;;;5.38;;
35424;SDS011;21537;48.226;16.400;2022-08-19T13:07:35;20.75;;;5.28;;
35424;SDS011;21537;48.226;16.400;2022-08-19T13:10:02;17.88;;;5.00;;
35424;SDS011;21537;48.226;16.400;2022-08-19T13:12:29;20.85;;;5.40;;
35424;SDS011;21537;48.226;16.400;2022-08-19T13:14:55;17.30;;;5.45;;
35424;SDS011;21537;48.226;16.400;2022-08-19T13:17:20;19.60;;;5.70;;
35424;SDS011;21537;48.226;16.400;2022-08-19T13:19:47;14.73;;;5.22;;
35424;SDS011;21537;48.226;16.400;2022-08-19T13:22:13;19.08;;;5.57;;
35424;SDS011;21537;48.226;16.400;2022-08-19T13:24:38;18.20;;;6.00;;
35424;SDS011;21537;48.226;16.400;2022-08-19T13:27:04;21.17;;;6.00;;
35424;SDS011;21537;48.226;16.400;2022-08-19T13:29:32;23.80;;;5.68;;
35424;SDS011;21537;48.226;16.400;2022-08-19T13:32:16;21.50;;;5.68;;
35424;SDS011;21537;48.226;16.400;2022-08-19T13:35:01;23.48;;;5.63;;
35424;SDS011;21537;48.226;16.400;2022-08-19T13:37:27;17.75;;;4.65;;
35424;SDS011;21537;48.226;16.400;2022-08-19T13:40:10;21.25;;;5.63;;
35424;SDS011;21537;48.226;16.400;2022-08-19T13:42:42;20.58;;;5.30;;
35424;SDS011;21537;48.226;16.400;2022-08-19T13:45:12;16.30;;;5.25;;
35424;SDS011;21537;48.226;16.400;2022-08-19T13:47:40;20.00;;;5.13;;
35424;SDS011;21537;48.226;16.400;2022-08-19T13:50:13;17.85;;;5.20;;
35424;SDS011;21537;48.226;16.400;2022-08-19T13:52:41;19.40;;;5.30;;
35424;SDS011;21537;48.226;16.400;2022-08-19T13:55:09;18.40;;;5.72;;
35424;SDS011;21537;48.226;16.400;2022-08-19T13:57:36;21.50;;;5.63;;
35424;SDS011;21537;48.226;16.400;2022-08-19T14:00:05;20.50;;;5.07;;
35424;SDS011;21537;48.226;16.400;2022-08-19T14:02:35;15.88;;;4.65;;
35424;SDS011;21537;48.226;16.400;2022-08-19T14:05:02;20.13;;;5.28;;
35424;SDS011;21537;48.226;16.400;2022-08-19T14:07:30;19.60;;;5.22;;
35424;SDS011;21537;48.226;16.400;2022-08-19T14:09:55;21.58;;;5.90;;
35424;SDS011;21537;48.226;16.400;2022-08-19T14:12:22;17.08;;;5.28;;
35424;SDS011;21537;48.226;16.400;2022-08-19T14:14:48;22.75;;;5.07;;
35424;SDS011;21537;48.226;16.400;2022-08-19T14:17:14;16.42;;;5.10;;
35424;SDS011;21537;48.226;16.400;2022-08-19T14:19:41;15.48;;;5.30;;
35424;SDS011;21537;48.226;16.400;2022-08-19T14:22:08;19.67;;;5.32;;
35424;SDS011;21537;48.226;16.400;2022-08-19T14:24:34;16.42;;;5.50;;
35424;SDS011;21537;48.226;16.400;2022-08-19T14:27:02;16.67;;;4.90;;
35424;SDS011;21537;48.226;16.400;2022-08-19T14:29:28;23.05;;;5.25;;
35424;SDS011;21537;48.226;16.400;2022-08-19T14:31:54;18.90;;;5.93;;
35424;SDS011;21537;48.226;16.400;2022-08-19T14:34:24;19.77;;;5.10;;
35424;SDS011;21537;48.226;16.400;2022-08-19T14:36:51;17.88;;;5.65;;
35424;SDS011;21537;48.226;16.400;2022-08-19T14:39:17;20.45;;;5.03;;
35424;SDS011;21537;48.226;16.400;2022-08-19T14:41:43;15.77;;;5.47;;
35424;SDS011;21537;48.226;16.400;2022-08-19T14:44:10;16.80;;;4.93;;
35424;SDS011;21537;48.226;16.400;2022-08-19T14:46:37;15.60;;;4.65;;
35424;SDS011;21537;48.226;16.400;2022-08-19T14:49:03;21.52;;;5.57;;
35424;SDS011;21537;48.226;16.400;2022-08-19T14:51:30;17.48;;;5.07;;
35424;SDS011;21537;48.226;16.400;2022-08-19T14:53:56;17.25;;;4.95;;
35424;SDS011;21537;48.226;16.400;2022-08-19T14:56:24;14.45;;;5.07;;
35424;SDS011;21537;48.226;16.400;2022-08-19T14:58:54;16.85;;;5.30;;
35424;SDS011;21537;48.226;16.400;2022-08-19T15:01:22;19.55;;;4.90;;
35424;SDS011;21537;48.226;16.400;2022-08-19T15:03:48;19.98;;;5.00;;
35424;SDS011;21537;48.226;16.400;2022-08-19T15:06:14;20.40;;;4.65;;
35424;SDS011;21537;48.226;16.400;2022-08-19T15:08:41;16.88;;;4.28;;
35424;SDS011;21537;48.226;16.400;2022-08-19T15:11:09;12.60;;;4.45;;
35424;SDS011;21537;48.226;16.400;2022-08-19T15:13:40;16.52;;;4.90;;
35424;SDS011;21537;48.226;16.400;2022-08-19T15:16:07;11.13;;;4.32;;
35424;SDS011;21537;48.226;16.400;2022-08-19T15:18:34;20.42;;;4.50;;
35424;SDS011;21537;48.226;16.400;2022-08-19T15:21:00;24.13;;;4.32;;
35424;SDS011;21537;48.226;16.400;2022-08-19T15:23:27;16.52;;;4.30;;
35424;SDS011;21537;48.226;16.400;2022-08-19T15:25:53;17.88;;;4.93;;
35424;SDS011;21537;48.226;16.400;2022-08-19T15:28:20;17.75;;;4.15;;
35424;SDS011;21537;48.226;16.400;2022-08-19T15:30:48;9.95;;;3.47;;